createdAt,value
2017-11-18T00:00:30.785Z,101763.42
2017-11-18T00:02:58.323Z,101763.25
2017-11-18T00:05:25.838Z,101758.66
2017-11-18T00:07:53.571Z,101745.70
2017-11-18T00:10:21.096Z,101741.38
2017-11-18T00:12:48.618Z,101732.17
2017-11-18T00:15:16.315Z,101727.06
2017-11-18T00:17:43.891Z,101736.48
2017-11-18T00:20:11.415Z,101731.70
2017-11-18T00:22:39.161Z,101725.33
2017-11-18T00:25:06.687Z,101718.73
2017-11-18T00:27:34.201Z,101704.16
2017-11-18T00:30:01.960Z,101709.55
2017-11-18T00:32:29.477Z,101704.59
2017-11-18T00:34:56.997Z,101702.75
2017-11-18T00:37:24.669Z,101702.05
2017-11-18T00:39:52.190Z,101704.61
2017-11-18T00:42:19.733Z,101688.26
2017-11-18T00:44:47.307Z,101689.71
2017-11-18T00:47:14.860Z,101692.47
2017-11-18T00:49:42.370Z,101691.73
2017-11-18T00:52:09.951Z,101691.56
2017-11-18T00:54:37.473Z,101687.31
2017-11-18T00:57:05.106Z,101676.00
2017-11-18T00:59:32.649Z,101678.77
2017-11-18T01:02:00.185Z,101670.13
2017-11-18T01:04:27.729Z,101668.02
2017-11-18T01:06:55.245Z,101667.87
2017-11-18T01:09:22.836Z,101656.48
2017-11-18T01:11:50.365Z,101655.09
2017-11-18T01:14:17.891Z,101652.02
2017-11-18T01:16:45.472Z,101655.56
2017-11-18T01:19:12.989Z,101651.23
2017-11-18T01:21:40.519Z,101652.02
2017-11-18T01:24:08.084Z,101647.84
2017-11-18T01:26:35.700Z,101644.97
2017-11-18T01:29:03.222Z,101639.27
2017-11-18T01:31:30.772Z,101632.91
2017-11-18T01:33:58.326Z,101634.25
2017-11-18T01:36:25.872Z,101620.21
2017-11-18T01:38:53.581Z,101617.96
2017-11-18T01:41:21.106Z,101613.90
2017-11-18T01:43:48.641Z,101616.08
2017-11-18T01:46:16.192Z,101614.73
2017-11-18T01:48:43.715Z,101617.84
2017-11-18T01:51:11.353Z,101612.58
2017-11-18T01:53:38.885Z,101612.84
2017-11-18T01:56:06.406Z,101606.93
2017-11-18T01:58:33.986Z,101601.86
2017-11-18T02:01:01.506Z,101614.38
2017-11-18T02:03:29.037Z,101608.77
2017-11-18T02:05:56.617Z,101614.13
2017-11-18T02:08:24.131Z,101610.29
2017-11-18T02:10:51.649Z,101601.88
2017-11-18T02:13:19.301Z,101606.93
2017-11-18T02:15:47.558Z,101588.05
2017-11-18T02:18:15.099Z,101590.27
2017-11-18T02:20:42.846Z,101577.72
2017-11-18T02:23:10.395Z,101583.61
2017-11-18T02:25:37.930Z,101575.45
2017-11-18T02:28:05.766Z,101574.70
2017-11-18T02:30:33.278Z,101564.14
2017-11-18T02:33:00.817Z,101554.28
2017-11-18T02:35:28.510Z,101559.13
2017-11-18T02:37:56.072Z,101549.77
2017-11-18T02:40:23.622Z,101549.92
2017-11-18T02:42:51.411Z,101546.72
2017-11-18T02:45:18.946Z,101540.28
2017-11-18T02:47:46.500Z,101530.23
2017-11-18T02:50:14.057Z,101525.73
2017-11-18T02:52:41.583Z,101519.09
2017-11-18T02:55:09.266Z,101517.66
2017-11-18T02:57:36.806Z,101517.72
2017-11-18T03:00:04.383Z,101520.66
2017-11-18T03:02:31.917Z,101515.17
2017-11-18T03:04:59.440Z,101513.91
2017-11-18T03:07:27.141Z,101504.20
2017-11-18T03:09:54.666Z,101495.82
2017-11-18T03:12:22.185Z,101490.86
2017-11-18T03:14:49.766Z,101490.03
2017-11-18T03:17:17.291Z,101482.14
2017-11-18T03:19:44.810Z,101486.39
2017-11-18T03:22:12.441Z,101484.48
2017-11-18T03:24:39.969Z,101476.69
2017-11-18T03:27:07.523Z,101474.83
2017-11-18T03:29:35.038Z,101470.47
2017-11-18T03:32:02.587Z,101471.41
2017-11-18T03:34:30.102Z,101469.00
2017-11-18T03:36:57.807Z,101469.91
2017-11-18T03:39:25.327Z,101467.69
2017-11-18T03:41:52.856Z,101458.33
2017-11-18T03:44:20.624Z,101459.82
2017-11-18T03:46:48.155Z,101462.52
2017-11-18T03:49:15.697Z,101454.97
2017-11-18T03:51:43.237Z,101451.94
2017-11-18T03:54:10.754Z,101443.16
2017-11-18T03:56:38.377Z,101441.66
2017-11-18T03:59:05.903Z,101436.53
2017-11-18T04:01:33.449Z,101425.98
2017-11-18T04:04:00.986Z,101421.72
2017-11-18T04:06:28.677Z,101429.87
2017-11-18T04:08:56.188Z,101429.78
2017-11-18T04:11:23.700Z,101433.63
2017-11-18T04:13:51.243Z,101425.06
2017-11-18T04:16:18.782Z,101417.95
2017-11-18T04:18:46.327Z,101420.22
2017-11-18T04:21:13.991Z,101417.84
2017-11-18T04:23:41.500Z,101415.73
2017-11-18T04:26:09.026Z,101407.56
2017-11-18T04:28:36.615Z,101406.87
2017-11-18T04:31:04.157Z,101399.88
2017-11-18T04:33:31.676Z,101412.04
2017-11-18T04:35:59.214Z,101412.03
2017-11-18T04:38:26.754Z,101405.45
2017-11-18T04:40:54.287Z,101404.97
2017-11-18T04:43:21.852Z,101403.45
2017-11-18T04:45:49.377Z,101400.98
2017-11-18T04:48:17.120Z,101399.92
2017-11-18T04:50:44.635Z,101398.50
2017-11-18T04:53:12.154Z,101399.43
2017-11-18T04:55:39.818Z,101393.89
2017-11-18T04:58:07.351Z,101392.42
2017-11-18T05:00:34.886Z,101387.16
2017-11-18T05:03:03.407Z,101380.12
2017-11-18T05:05:30.951Z,101379.17
2017-11-18T05:07:58.530Z,101370.13
2017-11-18T05:10:26.054Z,101359.30
2017-11-18T05:12:53.577Z,101354.52
2017-11-18T05:15:21.156Z,101350.54
2017-11-18T05:17:48.667Z,101354.91
2017-11-18T05:20:16.206Z,101345.48
2017-11-18T05:22:43.950Z,101348.73
2017-11-18T05:25:11.498Z,101336.14
2017-11-18T05:27:39.055Z,101336.81
2017-11-18T05:30:06.689Z,101339.94
2017-11-18T05:32:34.262Z,101328.84
2017-11-18T05:35:01.772Z,101333.97
2017-11-18T05:37:29.304Z,101330.48
2017-11-18T05:39:56.870Z,101313.62
2017-11-18T05:43:24.459Z,101311.86
2017-11-18T05:45:51.999Z,101301.67
2017-11-18T05:48:19.543Z,101303.21
2017-11-18T05:50:47.069Z,101296.25
2017-11-18T05:53:14.856Z,101296.22
2017-11-18T05:55:42.365Z,101280.58
2017-11-18T05:58:10.786Z,101283.77
2017-11-18T06:00:38.352Z,101274.67
2017-11-18T06:03:05.885Z,101275.80
2017-11-18T06:05:33.425Z,101271.59
2017-11-18T06:08:00.938Z,101264.05
2017-11-18T06:10:28.660Z,101267.52
2017-11-18T06:12:56.187Z,101269.95
2017-11-18T06:15:23.699Z,101266.98
2017-11-18T06:17:51.390Z,101259.68
2017-11-18T06:20:18.902Z,101276.47
2017-11-18T06:22:46.427Z,101271.97
2017-11-18T06:25:14.102Z,101272.37
2017-11-18T06:27:41.674Z,101267.03
2017-11-18T06:30:09.335Z,101262.88
2017-11-18T06:32:36.920Z,101266.31
2017-11-18T06:35:04.434Z,101259.25
2017-11-18T06:37:31.957Z,101251.36
2017-11-18T06:39:59.669Z,101260.13
2017-11-18T06:42:27.186Z,101255.53
2017-11-18T06:44:54.705Z,101253.11
2017-11-18T06:47:22.265Z,101250.59
2017-11-18T06:49:49.782Z,101264.08
2017-11-18T06:52:17.315Z,101262.55
2017-11-18T06:54:44.867Z,101264.02
2017-11-18T06:57:13.160Z,101255.78
2017-11-18T06:59:40.858Z,101254.79
2017-11-18T07:02:08.378Z,101248.95
2017-11-18T07:04:35.889Z,101249.02
2017-11-18T07:07:03.562Z,101237.74
2017-11-18T07:09:31.088Z,101242.25
2017-11-18T07:11:58.601Z,101237.30
2017-11-18T07:14:26.146Z,101232.67
2017-11-18T07:16:53.797Z,101234.99
2017-11-18T07:19:21.325Z,101223.67
2017-11-18T07:21:48.833Z,101217.80
2017-11-18T07:24:16.405Z,101227.44
2017-11-18T07:26:43.914Z,101215.34
2017-11-18T07:29:11.444Z,101217.41
2017-11-18T07:31:39.117Z,101212.17
2017-11-18T07:34:06.654Z,101218.34
2017-11-18T07:36:34.174Z,101214.32
2017-11-18T07:39:01.750Z,101208.48
2017-11-18T07:41:29.270Z,101215.00
2017-11-18T07:43:56.794Z,101212.59
2017-11-18T07:46:24.535Z,101206.48
2017-11-18T07:48:52.082Z,101208.20
2017-11-18T07:51:19.593Z,101200.83
2017-11-18T07:53:47.272Z,101206.22
2017-11-18T07:56:14.785Z,101205.59
2017-11-18T07:58:42.303Z,101192.72
2017-11-18T08:01:09.980Z,101191.85
2017-11-18T08:03:37.495Z,101189.37
2017-11-18T08:06:05.038Z,101180.81
2017-11-18T08:08:32.689Z,101183.20
2017-11-18T08:11:00.226Z,101174.27
2017-11-18T08:13:27.750Z,101166.65
2017-11-18T08:15:55.285Z,101158.91
2017-11-18T08:18:22.808Z,101159.05
2017-11-18T08:20:50.441Z,101159.68
2017-11-18T08:23:17.964Z,101150.65
2017-11-18T08:25:45.504Z,101146.69
2017-11-18T08:28:13.077Z,101138.53
2017-11-18T08:30:40.634Z,101132.78
2017-11-18T08:33:08.163Z,101122.72
2017-11-18T08:35:35.711Z,101114.34
2017-11-18T08:38:03.239Z,101113.28
2017-11-18T08:40:30.810Z,101109.88
2017-11-18T08:42:58.321Z,101120.34
2017-11-18T08:45:25.854Z,101105.98
2017-11-18T08:47:53.398Z,101097.48
2017-11-18T08:50:21.150Z,101112.45
2017-11-18T08:52:48.686Z,101102.83
2017-11-18T08:55:16.207Z,101096.02
2017-11-18T08:57:43.857Z,101097.91
2017-11-18T09:00:11.422Z,101085.35
2017-11-18T09:02:38.938Z,101095.02
2017-11-18T09:05:06.483Z,101097.33
2017-11-18T09:07:34.001Z,101100.41
2017-11-18T09:10:01.558Z,101090.94
2017-11-18T09:12:29.102Z,101087.02
2017-11-18T09:14:56.849Z,101078.22
2017-11-18T09:17:24.367Z,101077.10
2017-11-18T09:19:51.895Z,101074.75
2017-11-18T09:22:19.579Z,101075.63
2017-11-18T09:24:47.101Z,101090.11
2017-11-18T09:27:14.626Z,101078.64
2017-11-18T09:29:42.279Z,101082.30
2017-11-18T09:32:09.794Z,101078.23
2017-11-18T09:34:37.322Z,101061.11
2017-11-18T09:37:04.874Z,101074.10
2017-11-18T09:39:32.578Z,101066.12
2017-11-18T09:42:00.098Z,101048.25
2017-11-18T09:44:27.637Z,101069.30
2017-11-18T09:46:55.226Z,101071.73
2017-11-18T09:49:22.733Z,101067.56
2017-11-18T09:51:50.247Z,101051.42
2017-11-18T09:54:18.005Z,101049.59
2017-11-18T09:56:45.519Z,101051.59
2017-11-18T09:59:13.049Z,101057.79
2017-11-18T10:01:40.603Z,101047.64
2017-11-18T10:04:08.261Z,101042.76
2017-11-18T10:06:35.794Z,101041.40
2017-11-18T10:09:03.356Z,101043.31
2017-11-18T10:11:30.944Z,101038.47
2017-11-18T10:13:58.475Z,101023.00
2017-11-18T10:16:25.994Z,101027.75
2017-11-18T10:18:53.534Z,101044.98
2017-11-18T10:21:21.080Z,101039.20
2017-11-18T10:23:48.627Z,101033.73
2017-11-18T10:26:16.142Z,101026.98
2017-11-18T10:28:43.819Z,101026.64
2017-11-18T10:31:11.346Z,101025.97
2017-11-18T10:33:38.957Z,101029.31
2017-11-18T10:36:06.515Z,101015.41
2017-11-18T10:38:34.030Z,101010.94
2017-11-18T10:41:01.602Z,101016.59
2017-11-18T10:43:29.109Z,101010.04
2017-11-18T10:45:56.641Z,101012.67
2017-11-18T10:48:24.330Z,100999.70
2017-11-18T10:50:51.850Z,100992.70
2017-11-18T10:53:19.380Z,100996.94
2017-11-18T10:55:46.934Z,100989.91
2017-11-18T10:58:14.524Z,100976.64
2017-11-18T11:00:42.072Z,100969.98
2017-11-18T11:03:09.590Z,100964.44
2017-11-18T11:05:37.150Z,100966.17
2017-11-18T11:08:04.806Z,100953.90
2017-11-18T11:10:32.327Z,100953.73
2017-11-18T11:12:59.838Z,100951.27
2017-11-18T11:15:27.386Z,100948.52
2017-11-18T11:17:55.102Z,100953.30
2017-11-18T11:20:22.627Z,100939.16
2017-11-18T11:22:50.145Z,100940.96
2017-11-18T11:25:17.698Z,100927.55
2017-11-18T11:27:45.279Z,100920.93
2017-11-18T11:30:12.842Z,100927.32
2017-11-18T11:32:40.358Z,100925.06
2017-11-18T11:35:08.370Z,100911.48
2017-11-18T11:37:35.897Z,100910.43
2017-11-18T11:40:03.436Z,100909.29
2017-11-18T11:42:31.124Z,100905.69
2017-11-18T11:44:58.666Z,100910.83
2017-11-18T11:47:26.249Z,100902.16
2017-11-18T11:49:53.803Z,100908.48
2017-11-18T11:52:21.314Z,100904.89
2017-11-18T11:54:48.899Z,100893.95
2017-11-18T11:57:16.434Z,100892.64
2017-11-18T11:59:44.143Z,100888.25
2017-11-18T12:02:11.670Z,100881.22
2017-11-18T12:04:39.215Z,100867.23
2017-11-18T12:07:06.793Z,100866.23
2017-11-18T12:09:34.316Z,100861.97
2017-11-18T12:12:01.825Z,100864.74
2017-11-18T12:14:29.363Z,100868.69
2017-11-18T12:16:56.895Z,100867.15
2017-11-18T12:19:24.492Z,100860.70
2017-11-18T12:21:52.055Z,100862.62
2017-11-18T12:24:19.565Z,100846.55
2017-11-18T12:26:47.122Z,100843.48
2017-11-18T12:29:14.669Z,100856.16
2017-11-18T12:31:42.403Z,100845.77
2017-11-18T12:34:09.932Z,100860.55
2017-11-18T12:36:37.459Z,100869.80
2017-11-18T12:39:05.222Z,100881.16
2017-11-18T12:41:32.733Z,100938.76
2017-11-18T12:44:00.247Z,100956.48
2017-11-18T12:46:27.790Z,100936.04
2017-11-18T12:48:55.334Z,100912.58
2017-11-18T12:51:22.849Z,100903.67
2017-11-18T12:53:50.411Z,100906.41
2017-11-18T12:56:17.929Z,100909.49
2017-11-18T12:58:45.465Z,100901.17
2017-11-18T13:01:13.079Z,100892.67
2017-11-18T13:03:40.618Z,100895.13
2017-11-18T13:06:08.491Z,100896.03
2017-11-18T13:08:36.062Z,100896.73
2017-11-18T13:11:03.588Z,100884.58
2017-11-18T13:13:31.251Z,100899.96
2017-11-18T13:15:58.761Z,100893.38
2017-11-18T13:18:26.273Z,100891.69
2017-11-18T13:20:53.920Z,100887.87
2017-11-18T13:23:21.447Z,100893.17
2017-11-18T13:25:48.981Z,100891.35
2017-11-18T13:28:16.564Z,100891.97
2017-11-18T13:30:44.086Z,100898.59
2017-11-18T13:33:11.651Z,100891.84
2017-11-18T13:35:39.190Z,100891.41
2017-11-18T13:38:06.782Z,100897.14
2017-11-18T13:40:34.293Z,100893.06
2017-11-18T13:43:01.826Z,100902.77
2017-11-18T13:45:29.418Z,100905.53
2017-11-18T13:47:56.935Z,100899.16
2017-11-18T13:50:24.454Z,100909.78
2017-11-18T13:52:51.994Z,100913.59
2017-11-18T13:55:19.643Z,100918.59
2017-11-18T13:57:47.170Z,100924.56
2017-11-18T14:00:14.770Z,100927.09
2017-11-18T14:02:42.314Z,100925.56
2017-11-18T14:05:09.990Z,100937.93
2017-11-18T14:07:37.506Z,100950.34
2017-11-18T14:10:05.032Z,100948.99
2017-11-18T14:12:32.573Z,100947.77
2017-11-18T14:15:00.252Z,100938.82
2017-11-18T14:17:27.935Z,100946.02
2017-11-18T14:19:55.455Z,100942.33
2017-11-18T14:22:23.026Z,100947.09
2017-11-18T14:24:50.545Z,100941.52
2017-11-18T14:27:18.112Z,100942.85
2017-11-18T14:29:45.711Z,100951.66
2017-11-18T14:32:13.239Z,100950.47
2017-11-18T14:34:40.775Z,100939.13
2017-11-18T14:37:08.351Z,100928.61
2017-11-18T14:39:35.886Z,100926.43
2017-11-18T14:42:03.398Z,100923.80
2017-11-18T14:44:30.941Z,100921.70
2017-11-18T14:46:58.478Z,100918.86
2017-11-18T14:49:26.033Z,100912.58
2017-11-18T14:51:53.561Z,100924.38
2017-11-18T14:54:21.125Z,100925.42
2017-11-18T14:56:48.693Z,100931.42
2017-11-18T14:59:16.317Z,100937.38
2017-11-18T15:01:43.909Z,100935.41
2017-11-18T15:04:11.492Z,100935.22
2017-11-18T15:06:39.037Z,100935.53
2017-11-18T15:09:06.727Z,100935.67
2017-11-18T15:11:34.279Z,100938.91
2017-11-18T15:14:01.843Z,100935.95
2017-11-18T15:19:41.262Z,100931.03
2017-11-18T15:22:12.798Z,100926.25
2017-11-18T15:24:45.917Z,100931.65
2017-11-18T15:27:19.269Z,100930.70
2017-11-18T15:29:52.222Z,100925.80
2017-11-18T15:32:25.473Z,100928.61
2017-11-18T15:34:59.577Z,100925.28
2017-11-18T15:37:32.843Z,100931.89
2017-11-18T15:40:00.514Z,100927.75
2017-11-18T15:42:28.088Z,100915.88
2017-11-18T15:45:02.081Z,100928.47
2017-11-18T15:50:32.377Z,100938.13
2017-11-18T15:53:05.797Z,100931.44
2017-11-18T15:58:39.822Z,100931.19
2017-11-18T16:01:13.333Z,100934.39
2017-11-18T16:06:48.725Z,100933.55
2017-11-18T16:09:18.113Z,100923.86
2017-11-18T16:11:45.650Z,100924.55
2017-11-18T16:14:13.185Z,100925.59
2017-11-18T16:16:40.865Z,100925.84
2017-11-18T16:19:08.389Z,100927.68
2017-11-18T16:21:35.935Z,100932.46
2017-11-18T16:24:03.622Z,100932.09
2017-11-18T16:26:31.146Z,100934.12
2017-11-18T16:28:58.685Z,100934.27
2017-11-18T16:31:26.250Z,100940.88
2017-11-18T16:33:53.844Z,100941.77
2017-11-18T16:36:21.391Z,100939.60
2017-11-18T16:38:48.954Z,100942.86
2017-11-18T16:41:16.619Z,100944.45
2017-11-18T16:43:44.226Z,100941.44
2017-11-18T16:46:11.759Z,100940.78
2017-11-18T16:48:39.350Z,100940.97
2017-11-18T16:51:06.929Z,100944.12
2017-11-18T16:53:34.496Z,100938.07
2017-11-18T16:56:02.062Z,100938.94
2017-11-18T16:58:29.818Z,100936.62
2017-11-18T17:00:57.374Z,100932.48
2017-11-18T17:03:24.914Z,100932.36
2017-11-18T17:05:52.474Z,100931.71
2017-11-18T17:08:20.045Z,100931.56
2017-11-18T17:10:47.701Z,100928.98
2017-11-18T17:13:15.250Z,100928.89
2017-11-18T17:15:43.164Z,100929.31
2017-11-18T17:18:10.725Z,100928.80
2017-11-18T17:20:38.261Z,100928.39
2017-11-18T17:23:05.928Z,100930.75
2017-11-18T17:25:33.458Z,100926.44
2017-11-18T17:28:00.978Z,100925.64
2017-11-18T17:30:28.592Z,100925.84
2017-11-18T17:32:56.202Z,100922.81
2017-11-18T17:35:23.745Z,100923.30
2017-11-18T17:37:51.393Z,100926.08
2017-11-18T17:40:18.959Z,100927.56
2017-11-18T17:42:46.508Z,100925.00
2017-11-18T17:45:14.080Z,100914.78
2017-11-18T17:47:41.705Z,100907.87
2017-11-18T17:50:09.264Z,100907.55
2017-11-18T17:52:36.863Z,100917.59
2017-11-18T17:55:04.411Z,100915.80
2017-11-18T17:57:31.966Z,100914.03
2017-11-18T17:59:59.760Z,100916.79
2017-11-18T18:02:27.298Z,100908.71
2017-11-18T18:04:54.838Z,100903.86
2017-11-18T18:07:22.437Z,100904.39
2017-11-18T18:09:49.974Z,100906.20
2017-11-18T18:12:17.530Z,100911.99
2017-11-18T18:14:45.302Z,100903.97
2017-11-18T18:17:12.836Z,100903.72
2017-11-18T18:19:40.364Z,100906.98
2017-11-18T18:22:07.930Z,100905.31
2017-11-18T18:24:35.474Z,100908.34
2017-11-18T18:27:03.097Z,100903.93
2017-11-18T18:29:30.630Z,100906.97
2017-11-18T18:31:58.146Z,100901.00
2017-11-18T18:34:25.700Z,100897.53
2017-11-18T18:36:53.224Z,100901.34
2017-11-18T18:39:21.119Z,100900.98
2017-11-18T18:41:48.661Z,100902.02
2017-11-18T18:44:16.402Z,100904.09
2017-11-18T18:46:43.958Z,100900.09
2017-11-18T18:49:11.495Z,100903.56
2017-11-18T18:51:39.254Z,100903.02
2017-11-18T18:54:06.776Z,100900.55
2017-11-18T18:56:34.329Z,100908.99
2017-11-18T18:59:02.027Z,100913.66
2017-11-18T19:01:29.574Z,100909.42
2017-11-18T19:03:57.092Z,100916.83
2017-11-18T19:06:24.847Z,100909.70
2017-11-18T19:08:52.374Z,100906.46
2017-11-18T19:11:19.889Z,100909.81
2017-11-18T19:13:47.570Z,100912.70
2017-11-18T19:16:15.086Z,100911.27
2017-11-18T19:18:42.635Z,100909.62
2017-11-18T19:21:10.387Z,100905.33
2017-11-18T19:23:37.939Z,100905.13
2017-11-18T19:26:05.464Z,100896.81
2017-11-18T19:28:33.132Z,100896.36
2017-11-18T19:31:00.663Z,100891.82
2017-11-18T19:33:28.186Z,100894.81
2017-11-18T19:35:55.722Z,100893.50
2017-11-18T19:38:23.377Z,100891.97
2017-11-18T19:40:50.928Z,100887.64
2017-11-18T19:43:18.455Z,100890.38
2017-11-18T19:45:46.007Z,100887.84
2017-11-18T19:48:13.567Z,100886.81
2017-11-18T19:50:41.465Z,100891.17
2017-11-18T19:53:08.988Z,100883.30
2017-11-18T19:55:36.512Z,100887.45
2017-11-18T19:58:04.105Z,100890.17
2017-11-18T20:00:31.646Z,100890.47
2017-11-18T20:02:59.168Z,100894.98
2017-11-18T20:05:26.731Z,100894.52
2017-11-18T20:07:54.287Z,100893.16
2017-11-18T20:10:22.052Z,100884.22
2017-11-18T20:12:49.605Z,100885.53
2017-11-18T20:15:17.179Z,100883.38
2017-11-18T20:17:44.802Z,100872.55
2017-11-18T20:20:12.344Z,100873.14
2017-11-18T20:22:39.924Z,100872.86
2017-11-18T20:25:07.599Z,100873.67
2017-11-18T20:27:35.146Z,100867.28
2017-11-18T20:30:02.688Z,100870.73
2017-11-18T20:32:30.240Z,100869.52
2017-11-18T20:34:57.794Z,100866.12
2017-11-18T20:37:25.334Z,100866.48
2017-11-18T20:39:52.959Z,100863.27
2017-11-18T20:42:20.486Z,100864.20
2017-11-18T20:44:48.023Z,100867.55
2017-11-18T20:47:15.600Z,100864.05
2017-11-18T20:49:43.154Z,100859.08
2017-11-18T20:52:10.684Z,100863.92
2017-11-18T20:54:38.250Z,100859.45
2017-11-18T20:57:05.784Z,100858.66
2017-11-18T20:59:33.454Z,100858.58
2017-11-18T21:02:00.986Z,100858.97
2017-11-18T21:04:28.510Z,100857.80
2017-11-18T21:06:56.097Z,100851.11
2017-11-18T21:09:23.643Z,100854.02
2017-11-18T21:11:51.171Z,100851.45
2017-11-18T21:14:18.757Z,100843.25
2017-11-18T21:16:46.304Z,100846.91
2017-11-18T21:19:13.861Z,100847.73
2017-11-18T21:21:41.448Z,100855.34
2017-11-18T21:24:08.961Z,100843.86
2017-11-18T21:26:36.482Z,100849.19
2017-11-18T21:29:04.147Z,100849.04
2017-11-18T21:31:31.681Z,100843.73
2017-11-18T21:33:59.210Z,100835.36
2017-11-18T21:36:26.776Z,100835.16
2017-11-18T21:38:54.328Z,100839.01
2017-11-18T21:41:21.882Z,100839.98
2017-11-18T21:43:49.405Z,100837.60
2017-11-18T21:46:16.946Z,100843.73
2017-11-18T21:48:44.467Z,100839.52
2017-11-18T21:51:12.247Z,100826.49
2017-11-18T21:53:39.773Z,100836.63
2017-11-18T21:56:07.307Z,100846.86
2017-11-18T21:58:35.150Z,100843.64
2017-11-18T22:01:02.831Z,100839.65
2017-11-18T22:03:31.066Z,100841.14
2017-11-18T22:05:58.628Z,100843.67
2017-11-18T22:08:26.219Z,100836.87
2017-11-18T22:10:53.751Z,100848.24
2017-11-18T22:13:21.280Z,100841.59
2017-11-18T22:15:48.830Z,100837.59
2017-11-18T22:18:16.355Z,100834.52
2017-11-18T22:20:43.950Z,100839.34
2017-11-18T22:23:12.111Z,100839.41
2017-11-18T22:25:39.646Z,100833.52
2017-11-18T22:28:07.378Z,100844.03
2017-11-18T22:30:34.907Z,100855.89
2017-11-18T22:33:02.434Z,100862.91
2017-11-18T22:35:30.005Z,100871.16
2017-11-18T22:37:57.522Z,100866.73
2017-11-18T22:40:25.050Z,100863.76
2017-11-18T22:42:52.702Z,100850.40
2017-11-18T22:45:20.228Z,100832.63
2017-11-18T22:47:47.741Z,100825.92
2017-11-18T22:50:15.526Z,100838.43
2017-11-18T22:52:43.061Z,100839.88
2017-11-18T22:55:10.580Z,100839.98
2017-11-18T22:57:38.243Z,100831.05
2017-11-18T23:00:05.766Z,100828.83
2017-11-18T23:02:33.291Z,100823.50
2017-11-18T23:05:00.903Z,100828.10
2017-11-18T23:07:28.425Z,100837.61
2017-11-18T23:09:55.937Z,100836.84
2017-11-18T23:12:23.513Z,100836.84
2017-11-18T23:14:51.045Z,100826.45
2017-11-18T23:17:18.571Z,100820.58
2017-11-18T23:19:46.154Z,100815.61
2017-11-18T23:22:13.680Z,100813.41
2017-11-18T23:24:41.208Z,100807.48
2017-11-18T23:27:08.930Z,100807.53
2017-11-18T23:29:36.452Z,100799.48
2017-11-18T23:32:03.993Z,100794.13
2017-11-18T23:34:31.536Z,100800.77
2017-11-18T23:36:59.206Z,100796.99
2017-11-18T23:39:26.727Z,100795.59
2017-11-18T23:41:54.243Z,100794.44
2017-11-18T23:44:21.787Z,100801.47
2017-11-18T23:46:49.375Z,100793.80
2017-11-18T23:49:16.898Z,100792.42
2017-11-18T23:51:44.433Z,100793.47
2017-11-18T23:54:12.024Z,100790.56
2017-11-18T23:56:39.537Z,100796.05
2017-11-18T23:59:07.055Z,100794.47
